CheckWX is a tool to help pilots better visualize weather data.  It is not intended as a substitute for an official pre-flight weather briefing.

07:12:08 UTC

KRNO TAF
Reno / Tahoe International Airport
Reno, Nevada, USA
KRNO 160520Z 1606/1706 VRB03KT P6SM SCT200 FM162300 33010KT P6SM VCSH SCT080 SCT150 FM170300 26008KT P6SM SCT150

Jun-16@
06:00 UTC

Jun-16 @ 06:00 UTC

Jun-16@
23:00 UTC

Jun-16 @ 23:00 UTC

KRNO 160520Z 1606/1706 VRB03KT P6SM SCT200
Wind
  • Variable at 3 KTS
Cloud Levels
  • Scattered at 20,000' AGL

Jun-16@
23:00 UTC

Jun-16 @ 23:00 UTC

Jun-17@
03:00 UTC

Jun-17 @ 03:00 UTC

FM162300 33010KT P6SM VCSH SCT080 SCT150

From

From Standard forecast or significant change

Wind
  • 330° at 10 KTS
Cloud Levels
  • Scattered at 8,000' AGL
  • Scattered at 15,000' AGL

Jun-17@
03:00 UTC

Jun-17 @ 03:00 UTC

Jun-17@
06:00 UTC

Jun-17 @ 06:00 UTC

FM170300 26008KT P6SM SCT150

From

From Standard forecast or significant change

Wind
  • 260° at 8 KTS
Cloud Levels
  • Scattered at 15,000' AGL